sensor_id;sensor_type;location;lat;lon;timestamp;temperature;humidity
22426;DHT22;11380;50.822;15.790;2023-03-14T00:02:03;10.00;99.90
22426;DHT22;11380;50.822;15.790;2023-03-14T00:07:13;10.00;99.90
22426;DHT22;11380;50.822;15.790;2023-03-14T00:12:21;9.90;99.90
22426;DHT22;11380;50.822;15.790;2023-03-14T00:17:27;9.70;99.90
22426;DHT22;11380;50.822;15.790;2023-03-14T00:22:36;9.40;99.90
22426;DHT22;11380;50.822;15.790;2023-03-14T00:27:44;9.00;1.00
22426;DHT22;11380;50.822;15.790;2023-03-14T00:32:51;8.90;1.00
22426;DHT22;11380;50.822;15.790;2023-03-14T00:37:59;8.80;1.00
22426;DHT22;11380;50.822;15.790;2023-03-14T00:43:06;8.60;1.00
22426;DHT22;11380;50.822;15.790;2023-03-14T00:48:13;8.40;1.00
22426;DHT22;11380;50.822;15.790;2023-03-14T00:53:21;8.50;1.00
22426;DHT22;11380;50.822;15.790;2023-03-14T00:58:28;8.40;1.00
22426;DHT22;11380;50.822;15.790;2023-03-14T01:03:35;8.60;1.00
22426;DHT22;11380;50.822;15.790;2023-03-14T01:08:43;8.60;99.90
22426;DHT22;11380;50.822;15.790;2023-03-14T01:13:51;8.90;99.90
22426;DHT22;11380;50.822;15.790;2023-03-14T01:18:58;8.80;99.90
22426;DHT22;11380;50.822;15.790;2023-03-14T01:24:05;9.40;1.00
22426;DHT22;11380;50.822;15.790;2023-03-14T01:29:14;9.40;1.00
22426;DHT22;11380;50.822;15.790;2023-03-14T01:34:21;9.50;1.00
22426;DHT22;11380;50.822;15.790;2023-03-14T01:39:28;9.10;20.30
22426;DHT22;11380;50.822;15.790;2023-03-14T01:44:54;8.70;99.90
22426;DHT22;11380;50.822;15.790;2023-03-14T01:50:08;9.00;1.00
22426;DHT22;11380;50.822;15.790;2023-03-14T01:55:19;8.90;1.00
22426;DHT22;11380;50.822;15.790;2023-03-14T02:00:28;9.00;1.00
22426;DHT22;11380;50.822;15.790;2023-03-14T02:05:37;9.00;1.00
22426;DHT22;11380;50.822;15.790;2023-03-14T02:10:48;8.80;1.00
22426;DHT22;11380;50.822;15.790;2023-03-14T02:15:56;8.60;1.00
22426;DHT22;11380;50.822;15.790;2023-03-14T02:27:09;9.40;1.00
22426;DHT22;11380;50.822;15.790;2023-03-14T02:32:18;9.50;1.00
22426;DHT22;11380;50.822;15.790;2023-03-14T02:37:39;9.60;1.00
22426;DHT22;11380;50.822;15.790;2023-03-14T02:42:47;9.70;1.00
22426;DHT22;11380;50.822;15.790;2023-03-14T02:47:54;9.60;1.00
22426;DHT22;11380;50.822;15.790;2023-03-14T02:53:03;9.60;1.00
22426;DHT22;11380;50.822;15.790;2023-03-14T02:58:11;9.70;1.00
22426;DHT22;11380;50.822;15.790;2023-03-14T03:03:18;9.50;1.00
22426;DHT22;11380;50.822;15.790;2023-03-14T03:08:28;9.70;1.00
22426;DHT22;11380;50.822;15.790;2023-03-14T03:13:35;9.70;1.00
22426;DHT22;11380;50.822;15.790;2023-03-14T03:18:42;9.80;1.00
22426;DHT22;11380;50.822;15.790;2023-03-14T03:23:50;9.90;1.00
22426;DHT22;11380;50.822;15.790;2023-03-14T03:28:57;10.10;1.00
22426;DHT22;11380;50.822;15.790;2023-03-14T03:34:04;9.90;1.00
22426;DHT22;11380;50.822;15.790;2023-03-14T03:39:13;9.70;1.00
22426;DHT22;11380;50.822;15.790;2023-03-14T03:44:20;10.80;1.00
22426;DHT22;11380;50.822;15.790;2023-03-14T03:49:31;10.40;1.00
22426;DHT22;11380;50.822;15.790;2023-03-14T03:54:38;10.30;1.00
22426;DHT22;11380;50.822;15.790;2023-03-14T03:59:44;10.60;1.00
22426;DHT22;11380;50.822;15.790;2023-03-14T04:04:50;11.20;1.00
22426;DHT22;11380;50.822;15.790;2023-03-14T04:09:57;10.40;1.00
22426;DHT22;11380;50.822;15.790;2023-03-14T04:15:04;10.10;1.00
22426;DHT22;11380;50.822;15.790;2023-03-14T04:20:13;10.10;1.00
22426;DHT22;11380;50.822;15.790;2023-03-14T04:25:20;9.80;1.00
22426;DHT22;11380;50.822;15.790;2023-03-14T04:30:27;10.80;1.00
22426;DHT22;11380;50.822;15.790;2023-03-14T04:35:34;10.10;1.00
22426;DHT22;11380;50.822;15.790;2023-03-14T04:40:41;10.40;1.00
22426;DHT22;11380;50.822;15.790;2023-03-14T04:45:49;11.60;1.00
22426;DHT22;11380;50.822;15.790;2023-03-14T04:50:56;10.10;1.00
22426;DHT22;11380;50.822;15.790;2023-03-14T04:56:03;11.40;1.00
22426;DHT22;11380;50.822;15.790;2023-03-14T05:01:10;10.70;1.00
22426;DHT22;11380;50.822;15.790;2023-03-14T05:06:17;11.20;1.00
22426;DHT22;11380;50.822;15.790;2023-03-14T05:11:23;10.90;1.00
22426;DHT22;11380;50.822;15.790;2023-03-14T05:16:30;10.70;1.00
22426;DHT22;11380;50.822;15.790;2023-03-14T05:21:38;10.40;1.00
22426;DHT22;11380;50.822;15.790;2023-03-14T05:26:45;9.70;1.00
22426;DHT22;11380;50.822;15.790;2023-03-14T05:31:51;9.60;1.00
22426;DHT22;11380;50.822;15.790;2023-03-14T05:36:59;9.60;1.00
22426;DHT22;11380;50.822;15.790;2023-03-14T05:42:07;9.90;1.00
22426;DHT22;11380;50.822;15.790;2023-03-14T05:47:14;9.60;1.00
22426;DHT22;11380;50.822;15.790;2023-03-14T05:52:21;9.80;1.00
22426;DHT22;11380;50.822;15.790;2023-03-14T05:57:27;10.10;1.00
22426;DHT22;11380;50.822;15.790;2023-03-14T06:02:34;10.00;1.00
22426;DHT22;11380;50.822;15.790;2023-03-14T06:07:41;10.20;1.00
22426;DHT22;11380;50.822;15.790;2023-03-14T06:12:50;10.30;1.00
22426;DHT22;11380;50.822;15.790;2023-03-14T06:17:57;10.00;1.00
22426;DHT22;11380;50.822;15.790;2023-03-14T06:23:05;9.70;1.00
22426;DHT22;11380;50.822;15.790;2023-03-14T06:28:14;9.60;1.00
22426;DHT22;11380;50.822;15.790;2023-03-14T06:33:20;9.40;1.00
22426;DHT22;11380;50.822;15.790;2023-03-14T06:38:27;9.10;1.00
22426;DHT22;11380;50.822;15.790;2023-03-14T06:43:35;9.00;1.00
22426;DHT22;11380;50.822;15.790;2023-03-14T06:48:40;9.20;1.00
22426;DHT22;11380;50.822;15.790;2023-03-14T06:53:47;9.20;1.00
22426;DHT22;11380;50.822;15.790;2023-03-14T06:58:55;9.20;1.00
22426;DHT22;11380;50.822;15.790;2023-03-14T07:04:02;9.60;1.00
22426;DHT22;11380;50.822;15.790;2023-03-14T07:09:10;9.50;1.00
22426;DHT22;11380;50.822;15.790;2023-03-14T07:14:17;9.40;1.00
22426;DHT22;11380;50.822;15.790;2023-03-14T07:19:25;9.30;1.00
22426;DHT22;11380;50.822;15.790;2023-03-14T07:24:36;9.50;1.00
22426;DHT22;11380;50.822;15.790;2023-03-14T07:29:52;10.20;1.00
22426;DHT22;11380;50.822;15.790;2023-03-14T07:34:59;10.40;1.00
22426;DHT22;11380;50.822;15.790;2023-03-14T07:40:07;10.30;1.00
22426;DHT22;11380;50.822;15.790;2023-03-14T07:45:16;10.30;1.00
22426;DHT22;11380;50.822;15.790;2023-03-14T07:50:26;10.10;1.00
22426;DHT22;11380;50.822;15.790;2023-03-14T07:55:33;10.20;1.00
22426;DHT22;11380;50.822;15.790;2023-03-14T08:00:40;10.20;1.00
22426;DHT22;11380;50.822;15.790;2023-03-14T08:05:48;10.40;1.00
22426;DHT22;11380;50.822;15.790;2023-03-14T08:11:02;10.60;1.00
22426;DHT22;11380;50.822;15.790;2023-03-14T08:16:14;10.50;1.00
22426;DHT22;11380;50.822;15.790;2023-03-14T08:21:22;10.60;1.00
22426;DHT22;11380;50.822;15.790;2023-03-14T08:26:29;10.30;1.00
22426;DHT22;11380;50.822;15.790;2023-03-14T08:31:36;10.50;1.00
22426;DHT22;11380;50.822;15.790;2023-03-14T08:36:43;10.50;1.00
22426;DHT22;11380;50.822;15.790;2023-03-14T08:41:51;10.30;1.00
22426;DHT22;11380;50.822;15.790;2023-03-14T08:46:58;10.30;1.00
22426;DHT22;11380;50.822;15.790;2023-03-14T08:52:05;10.40;1.00
22426;DHT22;11380;50.822;15.790;2023-03-14T08:57:14;10.40;1.00
22426;DHT22;11380;50.822;15.790;2023-03-14T09:02:21;10.50;1.00
22426;DHT22;11380;50.822;15.790;2023-03-14T09:07:28;10.50;1.00
22426;DHT22;11380;50.822;15.790;2023-03-14T09:12:35;10.50;1.00
22426;DHT22;11380;50.822;15.790;2023-03-14T09:17:43;10.50;1.00
22426;DHT22;11380;50.822;15.790;2023-03-14T09:22:53;10.50;1.00
22426;DHT22;11380;50.822;15.790;2023-03-14T09:27:59;10.60;1.00
22426;DHT22;11380;50.822;15.790;2023-03-14T09:33:08;10.70;1.00
22426;DHT22;11380;50.822;15.790;2023-03-14T09:38:16;10.80;1.00
22426;DHT22;11380;50.822;15.790;2023-03-14T09:43:26;10.90;1.00
22426;DHT22;11380;50.822;15.790;2023-03-14T09:48:35;10.90;1.00
22426;DHT22;11380;50.822;15.790;2023-03-14T09:53:45;10.90;1.00
22426;DHT22;11380;50.822;15.790;2023-03-14T09:58:56;11.00;1.00
22426;DHT22;11380;50.822;15.790;2023-03-14T10:04:17;11.00;1.00
22426;DHT22;11380;50.822;15.790;2023-03-14T10:09:28;11.00;1.00
22426;DHT22;11380;50.822;15.790;2023-03-14T10:14:35;11.00;1.00
22426;DHT22;11380;50.822;15.790;2023-03-14T10:19:54;11.00;1.00
22426;DHT22;11380;50.822;15.790;2023-03-14T10:25:04;10.90;1.00
22426;DHT22;11380;50.822;15.790;2023-03-14T10:30:38;10.90;1.00
22426;DHT22;11380;50.822;15.790;2023-03-14T10:35:45;11.00;1.00
22426;DHT22;11380;50.822;15.790;2023-03-14T10:40:56;11.10;1.00
22426;DHT22;11380;50.822;15.790;2023-03-14T10:46:19;11.10;1.00
22426;DHT22;11380;50.822;15.790;2023-03-14T10:51:27;11.20;1.00
22426;DHT22;11380;50.822;15.790;2023-03-14T10:56:36;11.50;1.00
22426;DHT22;11380;50.822;15.790;2023-03-14T11:02:01;11.60;1.00
22426;DHT22;11380;50.822;15.790;2023-03-14T11:12:42;11.60;1.00
22426;DHT22;11380;50.822;15.790;2023-03-14T11:28:57;11.80;1.00
22426;DHT22;11380;50.822;15.790;2023-03-14T11:39:26;11.60;1.00
22426;DHT22;11380;50.822;15.790;2023-03-14T11:44:38;11.80;1.00
22426;DHT22;11380;50.822;15.790;2023-03-14T11:55:06;11.90;1.00
22426;DHT22;11380;50.822;15.790;2023-03-14T12:00:20;11.90;1.00
22426;DHT22;11380;50.822;15.790;2023-03-14T12:05:37;12.10;1.00
22426;DHT22;11380;50.822;15.790;2023-03-14T12:10:52;12.20;1.00
22426;DHT22;11380;50.822;15.790;2023-03-14T12:16:05;12.40;1.00
22426;DHT22;11380;50.822;15.790;2023-03-14T12:21:14;12.30;1.00
22426;DHT22;11380;50.822;15.790;2023-03-14T12:26:26;11.90;1.00
22426;DHT22;11380;50.822;15.790;2023-03-14T12:31:41;11.70;1.00
22426;DHT22;11380;50.822;15.790;2023-03-14T12:36:59;11.70;1.00
22426;DHT22;11380;50.822;15.790;2023-03-14T12:53:39;11.50;1.00
22426;DHT22;11380;50.822;15.790;2023-03-14T13:04:35;11.50;1.00
22426;DHT22;11380;50.822;15.790;2023-03-14T13:09:55;11.60;1.00
22426;DHT22;11380;50.822;15.790;2023-03-14T13:15:42;11.60;1.00
22426;DHT22;11380;50.822;15.790;2023-03-14T13:20:38;11.60;1.00
22426;DHT22;11380;50.822;15.790;2023-03-14T13:25:47;11.50;1.00
22426;DHT22;11380;50.822;15.790;2023-03-14T13:31:04;11.40;1.00
22426;DHT22;11380;50.822;15.790;2023-03-14T13:36:05;11.40;1.00
22426;DHT22;11380;50.822;15.790;2023-03-14T13:41:14;11.30;1.00
22426;DHT22;11380;50.822;15.790;2023-03-14T13:46:24;11.40;1.00
22426;DHT22;11380;50.822;15.790;2023-03-14T13:51:32;11.30;1.00
22426;DHT22;11380;50.822;15.790;2023-03-14T13:56:41;11.40;1.00
22426;DHT22;11380;50.822;15.790;2023-03-14T14:01:50;11.40;1.00
22426;DHT22;11380;50.822;15.790;2023-03-14T14:06:59;11.50;1.00
22426;DHT22;11380;50.822;15.790;2023-03-14T14:12:13;11.60;1.00
22426;DHT22;11380;50.822;15.790;2023-03-14T14:17:32;11.70;1.00
22426;DHT22;11380;50.822;15.790;2023-03-14T14:22:42;11.60;1.00
22426;DHT22;11380;50.822;15.790;2023-03-14T14:27:50;11.50;1.00
22426;DHT22;11380;50.822;15.790;2023-03-14T14:33:10;11.50;1.00
22426;DHT22;11380;50.822;15.790;2023-03-14T14:38:25;11.90;1.00
22426;DHT22;11380;50.822;15.790;2023-03-14T14:43:35;12.00;1.00
22426;DHT22;11380;50.822;15.790;2023-03-14T14:48:42;12.00;1.00
22426;DHT22;11380;50.822;15.790;2023-03-14T14:53:59;11.90;1.00
22426;DHT22;11380;50.822;15.790;2023-03-14T14:59:18;11.80;1.00
22426;DHT22;11380;50.822;15.790;2023-03-14T15:04:34;12.00;1.00
22426;DHT22;11380;50.822;15.790;2023-03-14T15:09:42;12.10;1.00
22426;DHT22;11380;50.822;15.790;2023-03-14T15:14:49;12.10;1.00
22426;DHT22;11380;50.822;15.790;2023-03-14T15:19:55;11.80;1.00
22426;DHT22;11380;50.822;15.790;2023-03-14T15:25:03;11.50;1.00
22426;DHT22;11380;50.822;15.790;2023-03-14T15:30:13;11.30;1.00
22426;DHT22;11380;50.822;15.790;2023-03-14T15:35:20;11.20;1.00
22426;DHT22;11380;50.822;15.790;2023-03-14T15:40:27;11.20;1.00
22426;DHT22;11380;50.822;15.790;2023-03-14T15:45:34;10.60;1.00
22426;DHT22;11380;50.822;15.790;2023-03-14T15:50:41;10.30;99.90
22426;DHT22;11380;50.822;15.790;2023-03-14T15:55:48;10.30;99.90
22426;DHT22;11380;50.822;15.790;2023-03-14T16:00:56;10.30;99.90
22426;DHT22;11380;50.822;15.790;2023-03-14T16:06:04;10.20;99.90
22426;DHT22;11380;50.822;15.790;2023-03-14T16:11:12;10.30;99.90
22426;DHT22;11380;50.822;15.790;2023-03-14T16:16:20;10.40;99.90
22426;DHT22;11380;50.822;15.790;2023-03-14T16:21:27;10.40;99.90
22426;DHT22;11380;50.822;15.790;2023-03-14T16:26:34;10.40;99.90
22426;DHT22;11380;50.822;15.790;2023-03-14T16:31:42;10.50;99.90
22426;DHT22;11380;50.822;15.790;2023-03-14T16:36:49;10.40;99.90
22426;DHT22;11380;50.822;15.790;2023-03-14T16:41:57;10.30;99.90
22426;DHT22;11380;50.822;15.790;2023-03-14T16:47:04;10.30;99.90
22426;DHT22;11380;50.822;15.790;2023-03-14T16:52:14;10.30;99.90
22426;DHT22;11380;50.822;15.790;2023-03-14T16:57:21;10.30;99.90
22426;DHT22;11380;50.822;15.790;2023-03-14T17:02:28;10.20;99.90
22426;DHT22;11380;50.822;15.790;2023-03-14T17:07:35;10.20;99.90
22426;DHT22;11380;50.822;15.790;2023-03-14T17:12:43;10.40;99.90
22426;DHT22;11380;50.822;15.790;2023-03-14T17:17:51;10.20;99.90
22426;DHT22;11380;50.822;15.790;2023-03-14T17:22:58;10.10;99.90
22426;DHT22;11380;50.822;15.790;2023-03-14T17:28:05;10.00;99.90
22426;DHT22;11380;50.822;15.790;2023-03-14T17:33:13;9.90;99.90
22426;DHT22;11380;50.822;15.790;2023-03-14T17:38:23;9.80;99.90
22426;DHT22;11380;50.822;15.790;2023-03-14T17:43:31;9.70;99.90
22426;DHT22;11380;50.822;15.790;2023-03-14T17:48:46;9.80;99.90
22426;DHT22;11380;50.822;15.790;2023-03-14T17:53:54;9.80;99.90
22426;DHT22;11380;50.822;15.790;2023-03-14T17:59:00;9.90;99.90
22426;DHT22;11380;50.822;15.790;2023-03-14T18:04:07;9.90;99.90
22426;DHT22;11380;50.822;15.790;2023-03-14T18:09:16;10.00;99.90
22426;DHT22;11380;50.822;15.790;2023-03-14T18:14:22;10.00;99.90
22426;DHT22;11380;50.822;15.790;2023-03-14T18:19:29;9.80;99.90
22426;DHT22;11380;50.822;15.790;2023-03-14T18:24:37;9.70;1.00
22426;DHT22;11380;50.822;15.790;2023-03-14T18:29:45;9.60;1.00
22426;DHT22;11380;50.822;15.790;2023-03-14T18:34:53;9.40;1.00
22426;DHT22;11380;50.822;15.790;2023-03-14T18:40:01;9.30;1.00
22426;DHT22;11380;50.822;15.790;2023-03-14T18:45:11;9.20;1.00
22426;DHT22;11380;50.822;15.790;2023-03-14T18:50:18;8.90;1.00
22426;DHT22;11380;50.822;15.790;2023-03-14T18:55:27;8.70;1.00
22426;DHT22;11380;50.822;15.790;2023-03-14T19:00:35;8.40;1.00
22426;DHT22;11380;50.822;15.790;2023-03-14T19:05:43;7.90;1.00
22426;DHT22;11380;50.822;15.790;2023-03-14T19:10:56;6.50;1.00
22426;DHT22;11380;50.822;15.790;2023-03-14T19:16:05;6.20;1.00
22426;DHT22;11380;50.822;15.790;2023-03-14T19:21:13;6.10;1.00
22426;DHT22;11380;50.822;15.790;2023-03-14T19:26:20;5.90;1.00
22426;DHT22;11380;50.822;15.790;2023-03-14T19:31:28;5.60;1.00
22426;DHT22;11380;50.822;15.790;2023-03-14T19:36:36;5.10;1.00
22426;DHT22;11380;50.822;15.790;2023-03-14T19:41:44;4.50;1.00
22426;DHT22;11380;50.822;15.790;2023-03-14T19:46:53;3.80;1.00
22426;DHT22;11380;50.822;15.790;2023-03-14T19:52:02;3.50;1.00
22426;DHT22;11380;50.822;15.790;2023-03-14T19:57:10;3.10;1.00
22426;DHT22;11380;50.822;15.790;2023-03-14T20:02:18;2.90;8.40
22426;DHT22;11380;50.822;15.790;2023-03-14T20:07:27;2.90;41.90
22426;DHT22;11380;50.822;15.790;2023-03-14T20:12:34;2.50;4.40
22426;DHT22;11380;50.822;15.790;2023-03-14T20:17:45;2.50;46.10
22426;DHT22;11380;50.822;15.790;2023-03-14T20:22:53;2.40;47.60
22426;DHT22;11380;50.822;15.790;2023-03-14T20:28:01;2.20;9.00
22426;DHT22;11380;50.822;15.790;2023-03-14T20:33:09;2.00;1.00
22426;DHT22;11380;50.822;15.790;2023-03-14T20:38:17;1.90;1.00
22426;DHT22;11380;50.822;15.790;2023-03-14T20:43:26;1.90;99.90
22426;DHT22;11380;50.822;15.790;2023-03-14T20:48:33;2.00;99.90
22426;DHT22;11380;50.822;15.790;2023-03-14T20:53:42;1.90;73.10
22426;DHT22;11380;50.822;15.790;2023-03-14T20:58:50;2.00;56.20
22426;DHT22;11380;50.822;15.790;2023-03-14T21:03:58;1.90;1.00
22426;DHT22;11380;50.822;15.790;2023-03-14T21:09:06;1.90;58.80
22426;DHT22;11380;50.822;15.790;2023-03-14T21:14:13;1.90;99.90
22426;DHT22;11380;50.822;15.790;2023-03-14T21:19:23;1.80;83.50
22426;DHT22;11380;50.822;15.790;2023-03-14T21:24:33;1.90;98.20
22426;DHT22;11380;50.822;15.790;2023-03-14T21:29:41;1.90;28.80
22426;DHT22;11380;50.822;15.790;2023-03-14T21:34:50;1.90;99.90
22426;DHT22;11380;50.822;15.790;2023-03-14T21:39:57;1.90;45.40
22426;DHT22;11380;50.822;15.790;2023-03-14T21:45:05;1.90;1.00
22426;DHT22;11380;50.822;15.790;2023-03-14T21:50:14;2.00;1.00
22426;DHT22;11380;50.822;15.790;2023-03-14T21:55:21;2.10;1.00
22426;DHT22;11380;50.822;15.790;2023-03-14T22:00:30;2.00;1.00
22426;DHT22;11380;50.822;15.790;2023-03-14T22:05:40;2.00;1.00
22426;DHT22;11380;50.822;15.790;2023-03-14T22:10:49;2.00;1.00
22426;DHT22;11380;50.822;15.790;2023-03-14T22:15:59;1.90;1.00
22426;DHT22;11380;50.822;15.790;2023-03-14T22:21:06;2.00;1.00
22426;DHT22;11380;50.822;15.790;2023-03-14T22:26:14;2.00;1.00
22426;DHT22;11380;50.822;15.790;2023-03-14T22:31:22;2.00;1.00
22426;DHT22;11380;50.822;15.790;2023-03-14T22:36:30;2.00;1.00
22426;DHT22;11380;50.822;15.790;2023-03-14T22:41:37;2.20;1.00
22426;DHT22;11380;50.822;15.790;2023-03-14T22:46:45;2.00;1.00
22426;DHT22;11380;50.822;15.790;2023-03-14T22:51:52;2.00;1.00
22426;DHT22;11380;50.822;15.790;2023-03-14T22:57:00;2.00;1.00
22426;DHT22;11380;50.822;15.790;2023-03-14T23:02:08;2.00;1.00
22426;DHT22;11380;50.822;15.790;2023-03-14T23:07:15;2.10;1.00
22426;DHT22;11380;50.822;15.790;2023-03-14T23:12:22;2.10;1.00
22426;DHT22;11380;50.822;15.790;2023-03-14T23:17:30;2.00;1.00
22426;DHT22;11380;50.822;15.790;2023-03-14T23:22:38;2.00;1.00
22426;DHT22;11380;50.822;15.790;2023-03-14T23:27:48;2.00;1.00
22426;DHT22;11380;50.822;15.790;2023-03-14T23:32:57;2.00;1.00
22426;DHT22;11380;50.822;15.790;2023-03-14T23:38:05;2.00;1.00
22426;DHT22;11380;50.822;15.790;2023-03-14T23:43:12;1.90;1.00
22426;DHT22;11380;50.822;15.790;2023-03-14T23:48:22;1.90;1.00
22426;DHT22;11380;50.822;15.790;2023-03-14T23:53:31;1.70;1.00
22426;DHT22;11380;50.822;15.790;2023-03-14T23:58:40;1.80;1.00
